Terminal Aerodrome Forecast
Issued by NWS Pittsburgh, PA

Current Version | Previous Version | Text Only | Print | Product List | Glossary Off
Versions: 1 2 3 4 5 6 7 8 9 10 11 12 13 14 15 16 17 18 19 20 21 22 23 24 25 26 27 28 29 30 31 32 33

141
FTUS41 KPBZ 231550 AAA
TAFPIT
TAF AMD
KPIT 231550Z 2316/2418 31004KT P6SM SCT090
     FM231700 36008KT P6SM BKN050
     FM240000 01004KT P6SM SKC=

USA.gov is the U.S. government's official web portal to all federal, state and local government web resources and services.